Time;durP1;ratioP1;P1;durP2;ratioP2;P2;SDS_P1;SDS_P2;PMS_P1;PMS_P2;Temp;Humidity;BMP_temperature;BMP_pressure;BME280_temperature;BME280_humidity;BME280_pressure;Samples;Min_cycle;Max_cycle;Signal;HPM_P1;HPM_P2
2022/10/01 00:00:50;;;;;;;2.57;2.10;;;;;;;11.59;69.54;100093.88;5076609;28;20208;-77
2022/10/01 00:03:17;;;;;;;2.13;1.93;;;;;;;11.62;69.69;100072.03;5077124;28;20214;-77
2022/10/01 00:05:44;;;;;;;2.53;2.33;;;;;;;11.63;70.11;100066.75;5076303;28;20226;-78
2022/10/01 00:08:11;;;;;;;2.07;1.97;;;;;;;11.64;70.58;100050.19;5076374;28;20697;-78
2022/10/01 00:10:41;;;;;;;2.60;2.10;;;;;;;11.59;69.56;100064.28;5076504;28;20207;-77
2022/10/01 00:13:09;;;;;;;2.07;1.90;;;;;;;11.67;69.10;100073.63;5076285;28;20207;-78
2022/10/01 00:15:39;;;;;;;2.40;2.20;;;;;;;11.68;69.77;100069.25;5075313;28;20231;-78
2022/10/01 00:18:06;;;;;;;2.50;2.30;;;;;;;11.66;69.82;100060.59;5075732;28;20208;-77
2022/10/01 00:20:32;;;;;;;3.17;2.10;;;;;;;11.69;69.72;100055.25;5075666;28;20211;-77
2022/10/01 00:22:59;;;;;;;6.23;2.47;;;;;;;11.71;69.37;100056.06;5071068;28;20201;-78
2022/10/01 00:25:25;;;;;;;2.67;1.77;;;;;;;11.64;70.10;100052.78;5073486;28;20247;-77
2022/10/01 00:27:52;;;;;;;2.83;2.20;;;;;;;11.63;70.33;100043.22;5074213;28;20217;-77
2022/10/01 00:30:20;;;;;;;1.93;1.73;;;;;;;11.60;70.55;100022.41;5073252;28;20238;-77
2022/10/01 00:32:46;;;;;;;5.20;2.53;;;;;;;11.58;70.20;100016.38;5073952;28;20264;-78
2022/10/01 00:35:13;;;;;;;2.57;2.20;;;;;;;11.60;69.69;100019.81;5073736;28;20228;-77
2022/10/01 00:37:41;;;;;;;2.57;1.70;;;;;;;11.65;69.83;100017.03;5073779;28;20843;-78
2022/10/01 00:40:08;;;;;;;2.17;2.00;;;;;;;11.66;69.49;100035.31;5073862;28;20203;-77
2022/10/01 00:42:35;;;;;;;2.10;2.00;;;;;;;11.61;69.21;100045.03;5073286;28;20230;-77
2022/10/01 00:45:02;;;;;;;2.10;2.00;;;;;;;11.63;69.16;100042.38;5073716;28;20231;-77
2022/10/01 00:47:33;;;;;;;3.37;2.27;;;;;;;11.41;69.04;100053.44;5073723;28;20302;-77
2022/10/01 00:50:05;;;;;;;2.70;2.33;;;;;;;11.45;69.99;100035.94;5077276;28;20235;-77
2022/10/01 00:52:35;;;;;;;2.57;2.37;;;;;;;11.53;69.83;100015.66;5074301;28;20303;-77
2022/10/01 00:55:06;;;;;;;2.47;2.00;;;;;;;11.44;70.11;100006.34;5076322;28;20280;-77
2022/10/01 00:57:33;;;;;;;2.20;2.00;;;;;;;11.33;69.78;100001.41;5078356;28;20214;-77
2022/10/01 01:00:04;;;;;;;2.77;2.57;;;;;;;11.41;70.09;99987.28;5078018;28;20205;-77
2022/10/01 01:02:32;;;;;;;2.50;2.30;;;;;;;11.42;70.81;99968.09;5079095;28;20213;-77
2022/10/01 01:05:00;;;;;;;4.60;3.17;;;;;;;11.28;70.60;99976.34;5077880;28;20234;-77
2022/10/01 01:07:27;;;;;;;4.17;2.43;;;;;;;11.26;70.43;99965.06;5077432;28;20210;-78
2022/10/01 01:09:55;;;;;;;2.40;2.20;;;;;;;11.30;70.01;99961.47;5074892;28;20233;-77
2022/10/01 01:12:36;;;;;;;3.40;2.23;;;;;;;11.37;70.39;99969.97;5075348;28;20232;-78
2022/10/01 01:15:14;;;;;;;2.37;2.17;;;;;;;11.33;70.15;99970.03;5074807;28;20708;-77
2022/10/01 01:17:51;;;;;;;2.10;2.00;;;;;;;11.33;69.41;99987.50;5075468;28;20215;-77
2022/10/01 01:20:48;;;;;;;2.20;1.90;;;;;;;11.39;69.78;99986.47;5075109;28;20628;-77
2022/10/01 01:23:42;;;;;;;4.03;2.50;;;;;;;11.33;70.72;99985.72;5061544;28;20208;-78
2022/10/01 01:26:16;;;;;;;2.47;1.90;;;;;;;11.36;69.81;99969.13;5054372;28;20316;-77
2022/10/01 01:28:49;;;;;;;1.90;1.80;;;;;;;11.30;69.58;99978.00;5055280;28;20228;-77
2022/10/01 01:31:21;;;;;;;1.93;1.83;;;;;;;11.35;69.88;99977.00;5054545;28;20745;-77
2022/10/01 01:33:51;;;;;;;2.07;1.87;;;;;;;11.33;69.49;99980.50;5054972;28;20215;-78
2022/10/01 01:36:22;;;;;;;3.20;2.50;;;;;;;11.40;69.51;99981.19;5054545;28;20224;-77
2022/10/01 01:38:53;;;;;;;2.67;1.60;;;;;;;11.49;69.64;99967.81;5054560;28;20242;-77
2022/10/01 01:41:23;;;;;;;2.00;1.90;;;;;;;11.51;69.96;99963.41;5055292;28;20246;-77
2022/10/01 01:43:56;;;;;;;2.53;1.97;;;;;;;11.46;69.17;99973.16;5055480;28;20215;-78
2022/10/01 01:46:30;;;;;;;3.13;2.00;;;;;;;11.54;69.31;99980.78;5054450;28;20368;-77
2022/10/01 01:48:59;;;;;;;2.13;2.00;;;;;;;11.56;69.99;99965.06;5055187;28;20311;-78
2022/10/01 01:51:33;;;;;;;2.07;1.87;;;;;;;11.43;70.03;99959.31;5056041;28;20636;-78
2022/10/01 01:54:00;;;;;;;2.80;1.87;;;;;;;11.44;70.47;99934.91;5076954;28;20203;-77
2022/10/01 01:56:27;;;;;;;2.67;2.27;;;;;;;11.45;70.91;99918.31;5066990;28;20230;-77
2022/10/01 01:58:55;;;;;;;2.03;1.93;;;;;;;11.52;70.88;99891.94;5075096;28;20197;-77
2022/10/01 02:01:32;;;;;;;2.10;2.00;;;;;;;11.49;71.42;99878.13;5071807;28;20306;-77
2022/10/01 02:04:00;;;;;;;2.17;2.00;;;;;;;11.23;70.33;99878.94;5072027;28;20303;-77
2022/10/01 02:06:33;;;;;;;2.50;2.30;;;;;;;11.27;70.28;99889.25;5071742;28;20238;-77
2022/10/01 02:09:10;;;;;;;2.93;2.10;;;;;;;11.39;70.75;99877.56;5071966;28;20272;-78
2022/10/01 02:11:44;;;;;;;4.17;2.27;;;;;;;11.29;71.61;99861.31;5072079;28;20210;-77
2022/10/01 02:14:21;;;;;;;2.40;2.20;;;;;;;11.33;72.13;99841.16;5072225;28;20208;-77
2022/10/01 02:16:52;;;;;;;2.97;1.70;;;;;;;11.33;71.33;99844.63;5071758;28;20213;-77
2022/10/01 02:19:28;;;;;;;5.27;2.10;;;;;;;11.33;71.38;99836.78;5072023;28;20202;-77
2022/10/01 02:22:00;;;;;;;3.60;2.03;;;;;;;11.37;70.78;99850.63;5071829;28;20219;-77
2022/10/01 02:24:36;;;;;;;3.07;2.20;;;;;;;11.38;71.20;99854.94;5071964;28;20207;-77
2022/10/01 02:27:08;;;;;;;2.10;1.73;;;;;;;11.30;69.85;99883.09;5063593;28;20214;-77
2022/10/01 02:29:37;;;;;;;2.30;2.10;;;;;;;11.25;69.80;99892.81;5071650;28;20608;-77
2022/10/01 02:32:04;;;;;;;2.80;1.90;;;;;;;11.35;69.79;99888.16;5071603;28;20218;-77
2022/10/01 02:34:31;;;;;;;1.90;1.80;;;;;;;11.32;69.09;99907.41;5071537;28;20208;-77
2022/10/01 02:37:01;;;;;;;2.53;1.90;;;;;;;11.43;69.40;99900.06;5071847;28;20207;-77
2022/10/01 02:39:30;;;;;;;2.50;2.30;;;;;;;11.44;69.00;99912.25;5072055;28;20206;-77
2022/10/01 02:41:59;;;;;;;2.33;2.07;;;;;;;11.40;69.05;99918.47;5071807;28;20209;-77
2022/10/01 02:44:36;;;;;;;1.90;1.80;;;;;;;11.33;68.66;99927.38;5071930;28;20594;-77
2022/10/01 02:47:07;;;;;;;2.90;1.80;;;;;;;11.38;68.53;99919.41;5071236;28;20214;-77
2022/10/01 02:49:36;;;;;;;4.73;1.80;;;;;;;11.48;68.75;99915.63;5071528;28;20231;-77
2022/10/01 02:52:10;;;;;;;4.30;2.13;;;;;;;11.50;68.43;99912.06;5071660;28;20211;-77
2022/10/01 02:54:42;;;;;;;2.97;2.20;;;;;;;11.58;69.19;99910.97;5071431;28;20267;-77
2022/10/01 02:57:26;;;;;;;2.57;2.27;;;;;;;11.57;68.74;99902.25;5063371;28;20212;-80
2022/10/01 02:59:55;;;;;;;3.60;2.00;;;;;;;11.55;68.36;99903.22;5063642;28;20563;-78
2022/10/01 03:02:23;;;;;;;2.77;1.87;;;;;;;11.53;69.19;99872.75;5072268;28;20203;-77
2022/10/01 03:04:49;;;;;;;2.47;2.07;;;;;;;11.53;69.03;99872.75;5071483;28;20231;-78
2022/10/01 03:07:17;;;;;;;2.33;2.13;;;;;;;11.56;68.89;99860.50;5073339;28;20216;-77
2022/10/01 03:09:44;;;;;;;2.43;2.10;;;;;;;11.52;69.01;99839.69;5075572;28;20230;-77
2022/10/01 03:12:10;;;;;;;2.20;1.87;;;;;;;11.52;68.96;99831.00;5075634;28;20213;-77
2022/10/01 03:14:38;;;;;;;2.70;2.00;;;;;;;11.50;69.53;99820.56;5075471;28;20227;-78
2022/10/01 03:17:04;;;;;;;2.97;2.27;;;;;;;11.43;69.81;99816.44;5075182;28;20220;-77
2022/10/01 03:19:32;;;;;;;2.10;1.90;;;;;;;11.46;69.26;99810.28;5075170;28;20198;-77
2022/10/01 03:21:59;;;;;;;2.87;2.03;;;;;;;11.46;69.86;99811.13;5075061;28;20264;-77
2022/10/01 03:24:25;;;;;;;2.30;2.10;;;;;;;11.51;69.51;99801.34;5074909;28;20238;-76
2022/10/01 03:26:52;;;;;;;2.27;2.07;;;;;;;11.54;69.27;99813.50;5066898;28;20206;-77
2022/10/01 03:29:18;;;;;;;1.97;1.80;;;;;;;11.58;69.48;99794.19;5074755;28;20683;-77
2022/10/01 03:31:45;;;;;;;2.90;2.07;;;;;;;11.59;69.26;99792.41;5074892;28;20218;-77
2022/10/01 03:34:12;;;;;;;2.50;2.30;;;;;;;11.49;68.49;99802.31;5074616;28;20207;-77
2022/10/01 03:36:40;;;;;;;4.47;2.10;;;;;;;11.53;69.02;99817.00;5074904;28;20230;-77
2022/10/01 03:39:06;;;;;;;3.20;1.93;;;;;;;11.58;68.81;99809.88;5075072;28;20211;-77
2022/10/01 03:41:33;;;;;;;2.30;2.10;;;;;;;11.59;69.43;99819.41;5074779;28;20216;-77
2022/10/01 03:44:00;;;;;;;3.13;2.20;;;;;;;11.53;68.85;99789.13;5074994;28;20241;-77
2022/10/01 03:46:26;;;;;;;2.20;2.00;;;;;;;11.59;68.83;99789.81;5074396;28;20237;-77
2022/10/01 03:48:54;;;;;;;2.30;2.00;;;;;;;11.57;69.27;99795.06;5074744;28;20212;-77
2022/10/01 03:51:20;;;;;;;4.00;2.20;;;;;;;11.58;68.89;99796.81;5074449;28;20230;-77
2022/10/01 03:53:48;;;;;;;2.63;1.93;;;;;;;11.61;68.67;99801.91;5074839;28;20220;-77
2022/10/01 03:56:16;;;;;;;2.60;2.40;;;;;;;11.56;68.43;99808.22;5067279;28;20234;-77
2022/10/01 03:58:42;;;;;;;2.37;2.00;;;;;;;11.65;69.11;99798.28;5073238;28;20207;-77
2022/10/01 04:01:09;;;;;;;2.13;1.90;;;;;;;11.70;69.13;99795.53;5074027;28;20200;-77
2022/10/01 04:03:35;;;;;;;2.63;2.00;;;;;;;11.64;68.90;99780.91;5074509;28;20218;-77
2022/10/01 04:06:02;;;;;;;2.07;1.83;;;;;;;11.67;69.16;99785.16;5073873;28;20707;-77
2022/10/01 04:08:28;;;;;;;2.40;2.20;;;;;;;11.70;69.42;99778.09;5074704;28;20207;-77
2022/10/01 04:10:56;;;;;;;2.23;2.03;;;;;;;11.71;69.14;99771.09;5074157;28;20227;-77
2022/10/01 04:13:23;;;;;;;2.17;2.07;;;;;;;11.71;69.37;99789.38;5074077;28;20570;-77
2022/10/01 04:15:49;;;;;;;2.23;2.10;;;;;;;11.64;68.84;99782.69;5073334;28;20283;-77
2022/10/01 04:18:18;;;;;;;2.40;2.20;;;;;;;11.72;69.22;99785.88;5073607;28;20208;-77
2022/10/01 04:20:44;;;;;;;2.87;2.50;;;;;;;11.63;68.97;99786.19;5074257;28;20203;-77
2022/10/01 04:23:11;;;;;;;2.13;2.03;;;;;;;11.67;69.53;99767.75;5074355;28;20219;-77
2022/10/01 04:25:37;;;;;;;3.07;2.30;;;;;;;11.67;69.77;99752.06;5071783;28;20275;-77
2022/10/01 04:28:07;;;;;;;2.60;2.40;;;;;;;11.63;70.75;99732.13;5067897;28;20209;-77
2022/10/01 04:30:36;;;;;;;2.17;2.07;;;;;;;11.67;71.09;99694.53;5073010;28;20222;-77
2022/10/01 04:33:03;;;;;;;2.93;2.27;;;;;;;11.66;71.03;99678.91;5073851;28;20208;-77
2022/10/01 04:35:30;;;;;;;2.53;2.33;;;;;;;11.71;71.35;99659.53;5073406;28;20240;-77
2022/10/01 04:38:00;;;;;;;2.47;2.27;;;;;;;11.75;71.94;99638.50;5073522;28;20685;-77
2022/10/01 04:40:28;;;;;;;2.50;2.07;;;;;;;11.66;72.87;99613.56;5073380;28;20637;-77
2022/10/01 04:42:54;;;;;;;3.63;2.17;;;;;;;11.70;73.71;99563.69;5073293;28;20206;-77
2022/10/01 04:45:23;;;;;;;2.60;2.40;;;;;;;11.55;75.08;99509.38;5073337;28;20230;-77
2022/10/01 04:47:50;;;;;;;2.60;2.40;;;;;;;11.57;75.97;99481.41;5073079;28;20574;-77
2022/10/01 04:50:18;;;;;;;2.33;2.10;;;;;;;11.51;76.46;99430.25;5073199;28;20230;-77
2022/10/01 04:52:45;;;;;;;2.57;2.37;;;;;;;11.41;77.66;99381.88;5073125;28;20206;-77
2022/10/01 04:55:11;;;;;;;5.07;2.47;;;;;;;11.13;79.43;99335.94;5072617;28;20227;-77
2022/10/01 04:57:38;;;;;;;2.83;2.43;;;;;;;11.20;80.20;99278.22;5064640;28;20215;-77
2022/10/01 05:00:08;;;;;;;2.43;2.33;;;;;;;11.31;80.17;99262.97;5072763;28;20253;-77
2022/10/01 05:02:36;;;;;;;2.53;2.33;;;;;;;11.24;80.00;99262.38;5072564;28;20666;-77
2022/10/01 05:05:05;;;;;;;2.67;2.47;;;;;;;11.11;81.04;99255.94;5072746;28;20233;-77
2022/10/01 05:07:31;;;;;;;2.40;2.20;;;;;;;11.04;81.43;99208.34;5072762;28;20210;-76
2022/10/01 05:09:59;;;;;;;2.90;2.33;;;;;;;11.02;82.68;99191.00;5072462;28;20563;-77
2022/10/01 05:12:25;;;;;;;2.63;2.43;;;;;;;11.09;82.31;99180.25;5072629;28;20229;-76
2022/10/01 05:14:52;;;;;;;2.87;2.67;;;;;;;11.10;83.59;99166.31;5072271;28;20223;-77
2022/10/01 05:17:19;;;;;;;2.67;2.47;;;;;;;11.11;84.33;99138.41;5072331;28;20281;-77
2022/10/01 05:19:47;;;;;;;2.80;2.60;;;;;;;11.11;83.56;99141.03;5072329;28;20686;-77
2022/10/01 05:22:15;;;;;;;2.90;2.70;;;;;;;10.99;84.82;99144.16;5072545;28;20210;-77
2022/10/01 05:24:42;;;;;;;3.60;3.00;;;;;;;10.99;85.36;99115.44;5072217;28;20235;-77
2022/10/01 05:27:12;;;;;;;3.00;2.60;;;;;;;10.94;86.76;99097.34;5063815;28;20216;-77
2022/10/01 05:29:39;;;;;;;2.80;2.53;;;;;;;10.87;86.54;99081.09;5065313;28;20236;-77
2022/10/01 05:32:06;;;;;;;2.90;2.57;;;;;;;10.89;86.86;99081.88;5062056;28;20200;-77
2022/10/01 05:34:32;;;;;;;3.50;2.77;;;;;;;10.94;86.50;99071.22;5061101;28;20208;-77
2022/10/01 05:37:01;;;;;;;2.70;2.50;;;;;;;10.79;87.05;99083.19;5060728;28;20206;-77
2022/10/01 05:39:28;;;;;;;3.20;2.80;;;;;;;10.70;88.19;99068.75;5062212;28;20208;-77
2022/10/01 05:41:55;;;;;;;3.57;3.27;;;;;;;10.70;88.90;99050.50;5063064;28;20206;-77
2022/10/01 05:44:21;;;;;;;2.87;2.67;;;;;;;10.69;88.61;99051.41;5061418;28;20253;-77
2022/10/01 05:46:49;;;;;;;2.83;2.60;;;;;;;10.65;89.60;99049.81;5061329;28;20228;-77
2022/10/01 05:49:16;;;;;;;2.90;2.70;;;;;;;10.62;90.43;99025.63;5063532;28;20682;-77
2022/10/01 05:51:43;;;;;;;3.00;2.80;;;;;;;10.58;91.37;99029.25;5061818;28;20249;-77
2022/10/01 05:54:12;;;;;;;2.90;2.70;;;;;;;10.55;91.71;99017.22;5062519;28;20207;-77
2022/10/01 05:56:39;;;;;;;3.10;2.80;;;;;;;10.49;90.73;99038.34;5062331;28;20284;-77
2022/10/01 05:59:06;;;;;;;3.10;2.80;;;;;;;10.57;91.79;99035.41;5065149;28;20202;-77
2022/10/01 06:01:32;;;;;;;3.03;2.77;;;;;;;10.53;91.70;99050.34;5062699;28;20674;-77
2022/10/01 06:03:59;;;;;;;3.33;3.00;;;;;;;10.56;92.09;99037.16;5061134;28;20215;-77
2022/10/01 06:06:27;;;;;;;2.60;2.40;;;;;;;10.51;92.48;99037.34;5061789;28;20224;-77
2022/10/01 06:08:53;;;;;;;5.67;2.87;;;;;;;10.48;93.31;99027.03;5063536;28;20213;-77
2022/10/01 06:11:23;;;;;;;3.70;3.17;;;;;;;10.50;93.76;99040.88;5061231;28;20216;-77
2022/10/01 06:13:49;;;;;;;3.63;3.30;;;;;;;10.45;93.38;99042.81;5061627;28;20204;-77
2022/10/01 06:16:16;;;;;;;2.97;2.77;;;;;;;10.52;93.15;99052.09;5062773;28;20224;-77
2022/10/01 06:18:43;;;;;;;4.17;2.47;;;;;;;10.52;93.42;99059.06;5061865;28;20214;-77
2022/10/01 06:21:09;;;;;;;2.83;2.63;;;;;;;10.51;94.12;99058.22;5062938;28;20199;-77
2022/10/01 06:23:36;;;;;;;3.43;3.13;;;;;;;10.56;93.52;99059.78;5063555;28;20262;-77
2022/10/01 06:26:05;;;;;;;2.90;2.70;;;;;;;10.54;94.17;99062.47;5061025;28;20279;-77
2022/10/01 06:28:33;;;;;;;3.10;2.80;;;;;;;10.55;94.60;99051.13;5064676;28;20250;-77
2022/10/01 06:31:01;;;;;;;2.80;2.27;;;;;;;10.53;94.79;99052.94;5052085;28;20228;-77
2022/10/01 06:33:28;;;;;;;2.40;2.20;;;;;;;10.44;95.33;99051.56;5056978;28;20208;-76
2022/10/01 06:35:55;;;;;;;3.53;2.73;;;;;;;10.49;95.33;99049.63;5051992;28;20234;-77
2022/10/01 06:38:24;;;;;;;3.27;2.30;;;;;;;10.57;95.13;99053.69;5059775;28;20656;-77
2022/10/01 06:40:52;;;;;;;2.47;2.27;;;;;;;10.55;95.40;99050.28;5061078;28;20290;-77
2022/10/01 06:43:19;;;;;;;2.67;2.30;;;;;;;10.42;96.08;99050.75;5055754;28;20275;-77
2022/10/01 06:45:47;;;;;;;2.77;2.13;;;;;;;10.53;95.45;99053.78;5054471;28;20255;-77
2022/10/01 06:48:16;;;;;;;2.13;1.90;;;;;;;10.51;96.12;99060.00;5055802;28;20222;-77
2022/10/01 06:50:45;;;;;;;2.30;2.10;;;;;;;10.43;96.23;99049.88;5056063;28;20237;-77
2022/10/01 06:53:12;;;;;;;2.60;2.40;;;;;;;10.48;97.08;99041.84;5055643;28;20210;-77
2022/10/01 06:55:40;;;;;;;2.50;2.30;;;;;;;10.47;97.24;99029.72;5055146;28;20261;-77
2022/10/01 06:58:09;;;;;;;2.00;1.90;;;;;;;10.56;96.89;99033.69;5069939;28;20191;-77
2022/10/01 07:00:37;;;;;;;2.00;1.90;;;;;;;10.45;96.96;99041.97;5074885;28;20566;-76
2022/10/01 07:03:09;;;;;;;2.00;1.80;;;;;;;10.49;97.32;99030.50;5075563;28;20213;-77
2022/10/01 07:05:36;;;;;;;2.23;2.00;;;;;;;10.57;97.16;99041.47;5075018;28;20226;-76
2022/10/01 07:08:03;;;;;;;2.47;2.23;;;;;;;10.45;97.29;99045.44;5075296;28;20233;-76
2022/10/01 07:10:30;;;;;;;2.10;2.00;;;;;;;10.55;97.21;99045.06;5075096;28;20727;-77
2022/10/01 07:13:06;;;;;;;2.70;2.50;;;;;;;10.64;96.93;99050.72;5074779;28;20281;-77
2022/10/01 07:15:32;;;;;;;1.60;1.50;;;;;;;10.65;97.03;99046.38;5074822;28;20229;-76
2022/10/01 07:17:59;;;;;;;2.27;1.90;;;;;;;10.71;96.85;99060.00;5074439;28;20328;-76
2022/10/01 07:20:26;;;;;;;2.00;1.80;;;;;;;10.70;97.36;99050.50;5074754;28;20214;-76
2022/10/01 07:22:57;;;;;;;1.70;1.60;;;;;;;10.75;99.01;99024.19;5074674;28;20208;-75
2022/10/01 07:25:24;;;;;;;2.07;1.90;;;;;;;10.76;98.31;99031.09;5066867;28;20227;-76
2022/10/01 07:27:53;;;;;;;2.00;1.90;;;;;;;10.72;98.61;99027.78;5066986;28;20207;-76
2022/10/01 07:30:19;;;;;;;1.33;1.23;;;;;;;10.73;98.29;99042.53;5062988;28;20287;-76
2022/10/01 07:32:46;;;;;;;1.70;1.60;;;;;;;10.79;97.49;99064.06;5064643;28;20195;-76
2022/10/01 07:35:13;;;;;;;1.80;1.53;;;;;;;10.65;97.28;99072.47;5062682;28;20592;-76
2022/10/01 07:37:41;;;;;;;2.57;1.77;;;;;;;10.68;97.98;99061.88;5074270;28;20306;-76
2022/10/01 07:40:08;;;;;;;1.87;1.77;;;;;;;10.71;97.77;99064.38;5073926;28;20212;-76
2022/10/01 07:42:35;;;;;;;2.10;1.47;;;;;;;10.64;97.59;99071.59;5074191;28;20244;-76
2022/10/01 07:45:03;;;;;;;1.93;1.50;;;;;;;10.64;97.48;99065.53;5073846;28;20238;-76
2022/10/01 07:47:29;;;;;;;1.40;1.30;;;;;;;10.70;97.96;99065.28;5073735;28;20215;-76
2022/10/01 07:49:56;;;;;;;1.30;1.20;;;;;;;10.65;97.84;99062.03;5074012;28;20212;-76
2022/10/01 07:52:22;;;;;;;1.20;1.20;;;;;;;10.68;98.42;99048.84;5073024;28;20229;-76
2022/10/01 07:54:50;;;;;;;1.20;1.20;;;;;;;10.66;98.83;99041.09;5073106;28;20740;-76
2022/10/01 07:57:16;;;;;;;1.20;1.10;;;;;;;10.69;98.67;99047.94;5065865;28;20207;-76
2022/10/01 07:59:43;;;;;;;1.30;1.20;;;;;;;10.75;98.28;99055.50;5073986;28;20207;-75
2022/10/01 08:02:14;;;;;;;1.40;1.30;;;;;;;10.69;98.43;99053.16;5073507;28;20842;-76
2022/10/01 08:07:24;;;;;;;1.00;1.00;;;;;;;10.81;98.38;99050.03;5073724;28;20223;-76
2022/10/01 08:09:52;;;;;;;1.67;1.17;;;;;;;10.78;98.17;99047.53;5073669;28;20219;-76
2022/10/01 08:12:19;;;;;;;0.87;0.87;;;;;;;10.76;98.55;99056.34;5073482;28;20228;-75
2022/10/01 08:14:46;;;;;;;1.00;1.00;;;;;;;10.76;98.47;99058.97;5073344;28;20267;-75
2022/10/01 08:17:13;;;;;;;1.40;1.30;;;;;;;10.84;98.42;99051.66;5073284;28;20246;-76
2022/10/01 08:19:39;;;;;;;0.90;0.90;;;;;;;10.78;98.43;99044.94;5073273;28;20218;-76
2022/10/01 08:22:07;;;;;;;1.00;1.00;;;;;;;10.84;99.42;99023.81;5073589;28;20265;-76
2022/10/01 08:24:35;;;;;;;0.70;0.70;;;;;;;10.83;99.07;99032.53;5073116;28;20208;-76
2022/10/01 08:27:03;;;;;;;0.90;0.90;;;;;;;10.81;98.82;99034.38;5064781;28;20207;-76
2022/10/01 08:29:31;;;;;;;1.00;1.00;;;;;;;10.73;98.60;99060.78;5073463;28;20216;-74
2022/10/01 08:31:57;;;;;;;1.17;0.80;;;;;;;10.83;98.93;99052.59;5072732;28;20225;-75
2022/10/01 08:34:24;;;;;;;0.70;0.70;;;;;;;10.84;98.86;99056.88;5073159;28;20223;-76
2022/10/01 08:36:51;;;;;;;0.80;0.80;;;;;;;10.81;98.65;99070.91;5073652;28;20615;-76
2022/10/01 08:39:19;;;;;;;1.17;1.00;;;;;;;10.83;98.04;99082.13;5072996;28;20209;-77
2022/10/01 08:41:53;;;;;;;0.87;0.80;;;;;;;10.89;99.17;99084.50;5072968;28;20273;-76
2022/10/01 08:44:26;;;;;;;1.30;0.90;;;;;;;10.86;98.68;99061.13;5072952;28;20212;-76
2022/10/01 08:46:59;;;;;;;1.07;1.00;;;;;;;10.94;98.70;99076.44;5072369;28;20247;-76
2022/10/01 08:49:32;;;;;;;0.97;0.97;;;;;;;11.03;99.41;99060.41;5073063;28;20260;-76
2022/10/01 08:52:03;;;;;;;1.07;0.60;;;;;;;10.88;99.22;99072.38;5072915;28;20227;-76
2022/10/01 08:54:35;;;;;;;0.80;0.80;;;;;;;10.99;99.33;99073.66;5072627;28;20205;-76
2022/10/01 08:57:04;;;;;;;0.70;0.70;;;;;;;10.99;99.83;99058.00;5064151;28;20208;-76
2022/10/01 08:59:40;;;;;;;2.40;0.80;;;;;;;10.91;100.00;99042.66;5072770;28;20566;-76
2022/10/01 09:02:22;;;;;;;1.00;1.00;;;;;;;10.83;100.00;99032.53;5072522;28;20200;-76
2022/10/01 09:04:52;;;;;;;0.93;0.80;;;;;;;10.92;100.00;99045.22;5072290;28;20232;-76
2022/10/01 09:07:37;;;;;;;0.80;0.80;;;;;;;10.89;100.00;99031.44;5072469;28;20200;-76
2022/10/01 09:10:13;;;;;;;0.80;0.80;;;;;;;10.93;100.00;99040.84;5072643;28;20208;-76
2022/10/01 09:12:48;;;;;;;0.63;0.63;;;;;;;11.00;100.00;99033.56;5072475;28;20226;-76
2022/10/01 09:15:28;;;;;;;0.87;0.87;;;;;;;11.07;100.00;99041.06;5072189;28;20261;-77
2022/10/01 09:18:05;;;;;;;0.70;0.60;;;;;;;11.12;100.00;99049.56;5072252;28;20212;-76
2022/10/01 09:20:36;;;;;;;1.03;0.90;;;;;;;11.17;100.00;99066.81;5072503;28;20210;-76
2022/10/01 09:23:18;;;;;;;1.30;0.90;;;;;;;11.22;100.00;99072.66;5072254;28;20726;-76
2022/10/01 09:25:49;;;;;;;0.70;0.70;;;;;;;11.19;100.00;99068.41;5068991;28;20234;-76
2022/10/01 09:28:18;;;;;;;0.57;0.57;;;;;;;11.11;100.00;99078.34;5067498;28;20273;-76
2022/10/01 09:30:53;;;;;;;0.77;0.70;;;;;;;11.24;100.00;99087.38;5071645;28;20215;-76
2022/10/01 09:33:23;;;;;;;0.80;0.80;;;;;;;11.32;100.00;99073.97;5072014;28;20237;-76
2022/10/01 09:35:55;;;;;;;1.17;0.80;;;;;;;11.40;100.00;99081.47;5071774;28;20325;-76
2022/10/01 09:38:29;;;;;;;0.83;0.83;;;;;;;11.43;100.00;99086.56;5072132;28;20217;-76
2022/10/01 09:40:57;;;;;;;1.00;0.90;;;;;;;11.48;100.00;99093.28;5071913;28;20208;-76
2022/10/01 09:43:29;;;;;;;0.87;0.87;;;;;;;11.41;100.00;99104.91;5072119;28;20205;-76
2022/10/01 09:45:58;;;;;;;1.30;0.90;;;;;;;11.44;100.00;99112.63;5071905;28;20260;-76
2022/10/01 09:48:30;;;;;;;0.70;0.70;;;;;;;11.50;100.00;99112.34;5071820;28;20608;-76
2022/10/01 09:51:02;;;;;;;0.63;0.63;;;;;;;11.56;100.00;99126.91;5071977;28;20213;-76
2022/10/01 09:53:34;;;;;;;0.80;0.80;;;;;;;11.66;100.00;99116.91;5071957;28;20214;-76
2022/10/01 09:56:09;;;;;;;0.70;0.70;;;;;;;11.78;100.00;99128.56;5066513;28;20277;-76
2022/10/01 09:58:39;;;;;;;0.60;0.60;;;;;;;11.81;100.00;99141.50;5070152;28;20226;-76
2022/10/01 10:01:16;;;;;;;0.97;0.80;;;;;;;11.84;100.00;99155.28;5071809;28;20211;-76
2022/10/01 10:03:54;;;;;;;0.70;0.70;;;;;;;11.84;99.67;99168.34;5071986;28;20210;-76
2022/10/01 10:06:26;;;;;;;1.03;0.70;;;;;;;11.83;99.55;99177.13;5071822;28;20250;-76
2022/10/01 10:08:54;;;;;;;0.70;0.70;;;;;;;11.70;99.14;99189.88;5072090;28;20740;-76
2022/10/01 10:11:22;;;;;;;1.03;0.70;;;;;;;11.80;99.93;99176.41;5071874;28;20354;-76
2022/10/01 10:13:51;;;;;;;1.33;0.80;;;;;;;11.73;99.15;99183.66;5072029;28;20203;-76
2022/10/01 10:16:25;;;;;;;0.97;0.80;;;;;;;11.74;100.00;99172.28;5072972;28;20231;-76
2022/10/01 10:18:54;;;;;;;0.73;0.67;;;;;;;11.77;100.00;99174.75;5075802;28;20245;-76
2022/10/01 10:21:24;;;;;;;1.63;0.80;;;;;;;11.80;100.00;99160.72;5075941;28;20255;-76
2022/10/01 10:23:52;;;;;;;0.60;0.60;;;;;;;11.87;100.00;99176.06;5076076;28;20213;-76
2022/10/01 10:26:21;;;;;;;0.97;0.80;;;;;;;11.90;99.77;99181.19;5067813;28;20233;-77
2022/10/01 10:28:48;;;;;;;0.80;0.80;;;;;;;12.00;100.00;99173.78;5074798;28;20728;-76
2022/10/01 10:31:16;;;;;;;0.73;0.73;;;;;;;12.02;99.50;99195.47;5072312;28;20219;-77
2022/10/01 10:33:54;;;;;;;0.60;0.60;;;;;;;12.10;98.13;99216.06;5064895;28;20287;-77
2022/10/01 10:36:28;;;;;;;0.70;0.70;;;;;;;12.22;98.29;99212.88;5064832;28;20316;-77
2022/10/01 10:38:56;;;;;;;0.97;0.70;;;;;;;12.17;98.14;99217.50;5064406;28;20223;-77
2022/10/01 10:41:25;;;;;;;0.70;0.70;;;;;;;12.29;98.45;99216.94;5059175;28;20275;-77
2022/10/01 10:43:55;;;;;;;0.70;0.70;;;;;;;12.31;98.52;99222.09;4355571;28;10000755;-76
2022/10/01 10:46:29;;;;;;;1.43;0.90;;;;;;;12.39;98.69;99209.50;5071714;28;20234;-78
2022/10/01 10:49:04;;;;;;;0.67;0.60;;;;;;;12.37;97.66;99221.81;5071966;28;20720;-77
2022/10/01 10:51:43;;;;;;;1.10;1.00;;;;;;;12.39;97.07;99229.56;5071973;28;20210;-77
2022/10/01 10:54:19;;;;;;;0.90;0.90;;;;;;;12.44;97.06;99227.59;5072407;28;20290;-77
2022/10/01 10:56:52;;;;;;;0.90;0.90;;;;;;;12.65;96.90;99220.53;5063762;28;20291;-77
2022/10/01 10:59:19;;;;;;;1.30;1.30;;;;;;;12.73;96.23;99252.44;5073470;28;20200;-77
2022/10/01 11:01:47;;;;;;;1.67;1.57;;;;;;;12.89;96.49;99257.78;5073552;28;20208;-76
2022/10/01 11:04:24;;;;;;;1.30;1.30;;;;;;;13.10;96.32;99255.91;5074280;28;20208;-77
2022/10/01 11:06:56;;;;;;;1.90;1.80;;;;;;;13.33;96.16;99257.44;5073855;28;20372;-77
2022/10/01 11:09:27;;;;;;;1.20;1.20;;;;;;;13.51;94.47;99271.41;5074164;28;20211;-77
2022/10/01 11:12:00;;;;;;;1.10;1.10;;;;;;;13.67;93.40;99309.03;5073805;28;20232;-77
2022/10/01 11:14:43;;;;;;;0.80;0.80;;;;;;;13.79;92.62;99343.47;5074345;28;20211;-78
2022/10/01 11:17:26;;;;;;;1.30;1.17;;;;;;;13.67;91.53;99356.25;5075080;28;20327;-77
2022/10/01 11:20:10;;;;;;;0.87;0.87;;;;;;;13.62;91.63;99384.47;5073002;28;20237;-77
2022/10/01 11:22:52;;;;;;;1.13;1.10;;;;;;;13.60;92.80;99367.13;5072114;28;20205;-77
2022/10/01 11:25:30;;;;;;;1.23;0.90;;;;;;;13.51;92.60;99348.28;5071905;28;20235;-77
2022/10/01 11:28:09;;;;;;;1.10;1.10;;;;;;;13.57;92.00;99360.25;5063248;28;20257;-77
2022/10/01 11:30:47;;;;;;;0.90;0.90;;;;;;;13.61;92.26;99363.56;5071354;28;20209;-77
2022/10/01 11:33:24;;;;;;;1.60;1.10;;;;;;;13.64;91.31;99380.00;5071156;28;20232;-76
2022/10/01 11:36:00;;;;;;;1.00;0.87;;;;;;;13.61;91.45;99368.81;5071439;28;20254;-77
2022/10/01 11:38:44;;;;;;;1.30;1.30;;;;;;;13.99;90.87;99373.94;5071973;28;20218;-77
2022/10/01 11:41:32;;;;;;;1.07;1.00;;;;;;;14.21;88.96;99413.94;5071833;28;20208;-77
2022/10/01 11:44:05;;;;;;;1.00;1.00;;;;;;;15.09;86.76;99465.44;5053775;28;20213;-77
2022/10/01 11:46:45;;;;;;;1.10;1.00;;;;;;;15.28;82.46;99566.97;5053586;28;20291;-77